This is the latest recevied weather packets stored in our database for station/object KB9PVH-3. If no packets are shown the sender has not sent any weather packets the latest 10 day(s).
| Time | Temp. | Humidity | Pressure | Rain* | Wind** | Luminosity | Snow |
|---|---|---|---|---|---|---|---|
| 1777403873 | 17.78° C | 53% | 1014.5 hPa | 0 mm | - | - | - |
| 1777400724 | 17.78° C | 50% | 1014.7 hPa | 0 mm | - | - | - |
| 1777399674 | 17.22° C | 55% | 1014.4 hPa | 0 mm | - | - | - |
| 1777398626 | 16.11° C | 56% | 1014 hPa | 0 mm | - | - | - |
| 1777397574 | 15.56° C | 59% | 1014 hPa | 0 mm | - | - | - |
| 1777396526 | 15° C | 59% | 1014 hPa | 0 mm | - | - | - |
| 1777395474 | 15.56° C | 60% | 1014 hPa | 0 mm | - | - | - |
| 1777393374 | 13.89° C | 64% | 1013.9 hPa | 0 mm | - | - | - |
| 1777392324 | 14.44° C | 65% | 1013.7 hPa | 0 mm | - | - | - |
| 1777391274 | 12.78° C | 69% | 1013.5 hPa | 0 mm | - | - | - |
| 1777389174 | 12.22° C | 71% | 1013.4 hPa | 0 mm | - | - | - |
| 1777388124 | 11.67° C | 73% | 1013.1 hPa | 0 mm | - | - | - |
| 1777387072 | 11.67° C | 71% | 1013 hPa | 0 mm | - | - | - |
| 1777386025 | 10° C | 75% | 1012.6 hPa | 0 mm | - | - | - |
| 1777384977 | 10.56° C | 76% | 1012.4 hPa | 0 mm | - | - | - |
| 1777383924 | 10.56° C | 77% | 1011.8 hPa | 0 mm | - | - | - |
| 1777382872 | 10° C | 77% | 1011.5 hPa | 0 mm | - | - | - |
| 1777381822 | 9.44° C | 78% | 1011.7 hPa | 0 mm | - | - | - |
| 1777380773 | 10° C | 80% | 1010.8 hPa | 0 mm | - | - | - |
| 1777379722 | 10° C | 82% | 1010.1 hPa | 0 mm | - | - | - |
| 1777378672 | 9.44° C | 82% | 1009.6 hPa | 0 mm | - | - | - |
| 1777377626 | 9.44° C | 82% | 1009.4 hPa | 0 mm | - | - | - |
| 1777376605 | 10° C | 82% | 1008.8 hPa | 0 mm | - | - | - |
| 1777375553 | 10° C | 83% | 1008.6 hPa | 0 mm | - | - | - |
| 1777374506 | 10° C | 84% | 1008.2 hPa | 0 mm | - | - | - |
* Rain latest hour (hover to see other rain measurements)
** Current wind speed in m/s (hover to see current wind gust speed)